Google Maps JavaScript API Example
Pilot Flight Report # 92684 Submitted by : AST003 on 2019-02-10
Date: 2019-02-10Aircraft: Boeing 787-3 Dreamliner
Flight No.: Not AvailableDistance (Nm): 777.27
Departure: WSAP - Paya LebarDestination: WBKK - Kota Kinabalu
 TimeFuelWeightSpeeds  
Out (Taxi)2327Z38708 lbs262016 lbs Flight RulesIFR
Off (Takeoff)2328Z 261760 lbs158 ktsFlight LevelFL329
On (Landing)0125Z 239163 lbs132 ktsVSTD-105 ft/min
In (Ramp)0126Z15797 lbs239098 lbs ZFW223300 lbs
Flight2.00  -  1:5722590 lbs  Pax0
Block1.98  -  1:5922911 lbs  Cargo0
Departure WeatherWSAP 102326Z 04004KT 46SM FEW017 BKN301 27/25 A2991
Destination WeatherWBKK 100126Z 08004KT 40SM FEW014 SCT140 25/23 A2982
Flight Comments